Weather at Toronto/City Centre Seaplane Base

Public forecast

Using degrees Celsius for public forecast. Weather courtesy of forecast.io.

Closest aviation weather report (METAR) to Toronto/City Centre Seaplane Base

Closest report is Billy Bishop Toronto City Centre Airport, 0.3 nm (0.6 km) SSW.

2024/05/20 07:00 (retrieved 17 minutes ago)

CYTZ 200700Z AUTO 28004KT 7SM CLR 15/14 A2994 RMK SLP142

Closest aviation forecast (TAF) to Toronto/City Centre Seaplane Base

Closest forecast is Billy Bishop Toronto City Centre Airport, 0.3 nm (0.6 km) SSW.

2024/05/20 06:36 Ammendment (retrieved 41 minutes ago)

TAF AMD CYTZ 200624Z 2006/2102 VRB03KT P6SM FEW070 TEMPO 2006/2012 4SM BR FM201800 12007KT P6SM BKN070 FM210000 VRB03KT P6SM FEW070 RMK FCST BASED ON AUTO OBS NXT FCST BY 200800Z